sensor_id;sensor_type;location;lat;lon;timestamp;pressure;altitude;pressure_sealevel;temperature;humidity
8140;BME280;4111;50.972;7.072;2022-07-01T00:00:32;101015.13;;;16.99;97.38
8140;BME280;4111;50.972;7.072;2022-07-01T00:02:59;101023.88;;;17.01;96.97
8140;BME280;4111;50.972;7.072;2022-07-01T00:05:26;101022.22;;;17.00;96.92
8140;BME280;4111;50.972;7.072;2022-07-01T00:07:52;101019.25;;;16.96;97.37
8140;BME280;4111;50.972;7.072;2022-07-01T00:10:19;101009.63;;;16.99;96.27
8140;BME280;4111;50.972;7.072;2022-07-01T00:12:46;101014.59;;;16.92;96.84
8140;BME280;4111;50.972;7.072;2022-07-01T00:15:13;101009.09;;;16.92;97.66
8140;BME280;4111;50.972;7.072;2022-07-01T00:17:40;101002.53;;;16.93;96.89
8140;BME280;4111;50.972;7.072;2022-07-01T00:20:07;101000.09;;;16.81;97.08
8140;BME280;4111;50.972;7.072;2022-07-01T00:22:34;101012.41;;;16.78;95.76
8140;BME280;4111;50.972;7.072;2022-07-01T00:25:01;101012.41;;;16.78;95.38
8140;BME280;4111;50.972;7.072;2022-07-01T00:27:27;101012.72;;;16.82;96.05
8140;BME280;4111;50.972;7.072;2022-07-01T00:29:53;101006.41;;;16.81;96.50
8140;BME280;4111;50.972;7.072;2022-07-01T00:32:20;101012.16;;;16.85;96.33
8140;BME280;4111;50.972;7.072;2022-07-01T00:34:46;101013.78;;;16.86;96.55
8140;BME280;4111;50.972;7.072;2022-07-01T00:37:13;101020.38;;;16.80;96.25
8140;BME280;4111;50.972;7.072;2022-07-01T00:39:39;101027.50;;;16.81;95.04
8140;BME280;4111;50.972;7.072;2022-07-01T00:42:06;101033.00;;;16.81;95.78
8140;BME280;4111;50.972;7.072;2022-07-01T00:44:33;101019.56;;;16.79;95.97
8140;BME280;4111;50.972;7.072;2022-07-01T00:47:02;101031.13;;;16.71;96.85
8140;BME280;4111;50.972;7.072;2022-07-01T00:49:29;101033.88;;;16.71;97.46
8140;BME280;4111;50.972;7.072;2022-07-01T00:51:56;101033.88;;;16.71;97.31
8140;BME280;4111;50.972;7.072;2022-07-01T00:54:24;101046.47;;;16.72;97.59
8140;BME280;4111;50.972;7.072;2022-07-01T00:56:50;101044.84;;;16.71;97.29
8140;BME280;4111;50.972;7.072;2022-07-01T00:59:17;101056.38;;;16.63;97.24
8140;BME280;4111;50.972;7.072;2022-07-01T01:01:43;101059.66;;;16.60;97.71
8140;BME280;4111;50.972;7.072;2022-07-01T01:04:10;101067.09;;;16.59;98.46
8140;BME280;4111;50.972;7.072;2022-07-01T01:06:36;101064.59;;;16.63;97.53
8140;BME280;4111;50.972;7.072;2022-07-01T01:09:03;101052.84;;;16.57;97.44
8140;BME280;4111;50.972;7.072;2022-07-01T01:11:29;101056.38;;;16.63;97.28
8140;BME280;4111;50.972;7.072;2022-07-01T01:13:56;101062.44;;;16.55;97.78
8140;BME280;4111;50.972;7.072;2022-07-01T01:16:23;101065.19;;;16.50;97.53
8140;BME280;4111;50.972;7.072;2022-07-01T01:18:52;101064.66;;;16.42;98.51
8140;BME280;4111;50.972;7.072;2022-07-01T01:21:19;101070.94;;;16.48;98.07
8140;BME280;4111;50.972;7.072;2022-07-01T01:23:46;101070.41;;;16.46;98.02
8140;BME280;4111;50.972;7.072;2022-07-01T01:26:20;101067.66;;;16.51;97.96
8140;BME280;4111;50.972;7.072;2022-07-01T01:28:48;101068.19;;;16.48;97.56
8140;BME280;4111;50.972;7.072;2022-07-01T01:31:15;101073.41;;;16.44;98.02
8140;BME280;4111;50.972;7.072;2022-07-01T01:33:42;101074.50;;;16.49;98.12
8140;BME280;4111;50.972;7.072;2022-07-01T01:36:08;101076.16;;;16.50;97.63
8140;BME280;4111;50.972;7.072;2022-07-01T01:38:36;101078.91;;;16.44;98.03
8140;BME280;4111;50.972;7.072;2022-07-01T01:41:03;101083.56;;;16.49;98.51
8140;BME280;4111;50.972;7.072;2022-07-01T01:43:30;101089.31;;;16.48;98.64
8140;BME280;4111;50.972;7.072;2022-07-01T01:45:56;101091.47;;;16.56;97.95
8140;BME280;4111;50.972;7.072;2022-07-01T01:48:23;101084.91;;;16.52;98.13
8140;BME280;4111;50.972;7.072;2022-07-01T01:50:50;101097.25;;;16.59;97.76
8140;BME280;4111;50.972;7.072;2022-07-01T01:53:16;101092.56;;;16.60;97.56
8140;BME280;4111;50.972;7.072;2022-07-01T01:55:43;101092.56;;;16.65;97.68
8140;BME280;4111;50.972;7.072;2022-07-01T01:58:10;101097.19;;;16.64;96.87
8140;BME280;4111;50.972;7.072;2022-07-01T02:00:36;101089.81;;;16.65;96.24
8140;BME280;4111;50.972;7.072;2022-07-01T02:03:03;101095.31;;;16.65;95.83
8140;BME280;4111;50.972;7.072;2022-07-01T02:05:31;101095.84;;;16.62;96.07
8140;BME280;4111;50.972;7.072;2022-07-01T02:07:58;101092.03;;;16.63;95.96
8140;BME280;4111;50.972;7.072;2022-07-01T02:10:24;101100.47;;;16.66;95.17
8140;BME280;4111;50.972;7.072;2022-07-01T02:12:51;101107.63;;;16.62;95.55
8140;BME280;4111;50.972;7.072;2022-07-01T02:15:17;101112.88;;;16.59;95.43
8140;BME280;4111;50.972;7.072;2022-07-01T02:17:44;101106.28;;;16.60;95.76
8140;BME280;4111;50.972;7.072;2022-07-01T02:20:11;101116.97;;;16.56;96.26
8140;BME280;4111;50.972;7.072;2022-07-01T02:22:41;101112.88;;;16.59;96.12
8140;BME280;4111;50.972;7.072;2022-07-01T02:25:09;101114.53;;;16.50;95.51
8140;BME280;4111;50.972;7.072;2022-07-01T02:27:35;101122.22;;;16.48;95.71
8140;BME280;4111;50.972;7.072;2022-07-01T02:30:04;101116.69;;;16.53;95.64
8140;BME280;4111;50.972;7.072;2022-07-01T02:32:32;101116.69;;;16.58;95.41
8140;BME280;4111;50.972;7.072;2022-07-01T02:34:58;101126.56;;;16.54;95.41
8140;BME280;4111;50.972;7.072;2022-07-01T02:37:25;101137.00;;;16.57;94.59
8140;BME280;4111;50.972;7.072;2022-07-01T02:39:51;101149.31;;;16.54;94.27
8140;BME280;4111;50.972;7.072;2022-07-01T02:42:19;101154.81;;;16.49;94.63
8140;BME280;4111;50.972;7.072;2022-07-01T02:45:03;101159.75;;;16.57;94.83
8140;BME280;4111;50.972;7.072;2022-07-01T02:47:37;101163.03;;;16.54;95.03
8140;BME280;4111;50.972;7.072;2022-07-01T02:50:05;101167.69;;;16.59;94.74
8140;BME280;4111;50.972;7.072;2022-07-01T02:52:37;101184.66;;;16.66;94.44
8140;BME280;4111;50.972;7.072;2022-07-01T02:55:06;101188.53;;;16.65;94.45
8140;BME280;4111;50.972;7.072;2022-07-01T02:57:34;101197.03;;;16.63;93.90
8140;BME280;4111;50.972;7.072;2022-07-01T03:00:00;101189.63;;;16.59;94.04
8140;BME280;4111;50.972;7.072;2022-07-01T03:02:27;101194.03;;;16.55;94.93
8140;BME280;4111;50.972;7.072;2022-07-01T03:04:53;101191.28;;;16.50;94.31
8140;BME280;4111;50.972;7.072;2022-07-01T03:07:20;101194.03;;;16.50;94.12
8140;BME280;4111;50.972;7.072;2022-07-01T03:09:48;101191.81;;;16.46;94.17
8140;BME280;4111;50.972;7.072;2022-07-01T03:12:14;101189.09;;;16.52;94.23
8140;BME280;4111;50.972;7.072;2022-07-01T03:14:55;101185.78;;;16.50;94.19
8140;BME280;4111;50.972;7.072;2022-07-01T03:17:23;101191.81;;;16.46;93.84
8140;BME280;4111;50.972;7.072;2022-07-01T03:19:51;101183.06;;;16.50;93.73
8140;BME280;4111;50.972;7.072;2022-07-01T03:22:18;101178.09;;;16.46;93.58
8140;BME280;4111;50.972;7.072;2022-07-01T03:24:45;101177.56;;;16.44;93.32
8140;BME280;4111;50.972;7.072;2022-07-01T03:27:11;101167.16;;;16.46;92.95
8140;BME280;4111;50.972;7.072;2022-07-01T03:29:37;101170.44;;;16.49;93.00
8140;BME280;4111;50.972;7.072;2022-07-01T03:32:04;101174.00;;;16.44;93.37
8140;BME280;4111;50.972;7.072;2022-07-01T03:34:31;101180.31;;;16.39;93.79
8140;BME280;4111;50.972;7.072;2022-07-01T03:36:57;101186.91;;;16.33;94.12
8140;BME280;4111;50.972;7.072;2022-07-01T03:39:23;101186.91;;;16.43;93.68
8140;BME280;4111;50.972;7.072;2022-07-01T03:41:50;101191.84;;;16.41;92.97
8140;BME280;4111;50.972;7.072;2022-07-01T03:44:16;101188.25;;;16.41;93.06
8140;BME280;4111;50.972;7.072;2022-07-01T03:46:43;101176.47;;;16.40;92.53
8140;BME280;4111;50.972;7.072;2022-07-01T03:49:09;101171.00;;;16.40;92.74
8140;BME280;4111;50.972;7.072;2022-07-01T03:51:37;101157.28;;;16.40;93.00
8140;BME280;4111;50.972;7.072;2022-07-01T03:54:04;101162.78;;;16.35;92.68
8140;BME280;4111;50.972;7.072;2022-07-01T03:56:49;101158.94;;;16.36;92.72
8140;BME280;4111;50.972;7.072;2022-07-01T03:59:15;101162.78;;;16.35;92.80
8140;BME280;4111;50.972;7.072;2022-07-01T04:01:42;101172.09;;;16.34;93.40
8140;BME280;4111;50.972;7.072;2022-07-01T04:04:08;101186.88;;;16.38;93.61
8140;BME280;4111;50.972;7.072;2022-07-01T04:06:35;101181.41;;;16.43;93.23
8140;BME280;4111;50.972;7.072;2022-07-01T04:09:02;101178.66;;;16.38;93.44
8140;BME280;4111;50.972;7.072;2022-07-01T04:11:29;101180.88;;;16.41;93.93
8140;BME280;4111;50.972;7.072;2022-07-01T04:13:55;101178.66;;;16.38;94.46
8140;BME280;4111;50.972;7.072;2022-07-01T04:16:22;101176.47;;;16.40;93.90
8140;BME280;4111;50.972;7.072;2022-07-01T04:18:50;101171.53;;;16.42;93.78
8140;BME280;4111;50.972;7.072;2022-07-01T04:21:16;101179.50;;;16.44;93.41
8140;BME280;4111;50.972;7.072;2022-07-01T04:24:04;101165.50;;;16.45;92.70
8140;BME280;4111;50.972;7.072;2022-07-01T04:26:30;101166.63;;;16.34;91.83
8140;BME280;4111;50.972;7.072;2022-07-01T04:29:04;101167.19;;;16.31;91.88
8140;BME280;4111;50.972;7.072;2022-07-01T04:31:31;101168.25;;;16.30;91.73
8140;BME280;4111;50.972;7.072;2022-07-01T04:33:58;101177.84;;;16.33;92.48
8140;BME280;4111;50.972;7.072;2022-07-01T04:36:25;101181.94;;;16.40;92.39
8140;BME280;4111;50.972;7.072;2022-07-01T04:38:51;101181.97;;;16.35;92.13
8140;BME280;4111;50.972;7.072;2022-07-01T04:41:19;101184.16;;;16.38;91.90
8140;BME280;4111;50.972;7.072;2022-07-01T04:44:04;101175.38;;;16.41;91.56
8140;BME280;4111;50.972;7.072;2022-07-01T04:46:31;101178.41;;;16.40;92.79
8140;BME280;4111;50.972;7.072;2022-07-01T04:48:57;101181.69;;;16.37;92.19
8140;BME280;4111;50.972;7.072;2022-07-01T04:51:24;101183.59;;;16.36;92.04
8140;BME280;4111;50.972;7.072;2022-07-01T04:53:50;101175.38;;;16.36;92.22
8140;BME280;4111;50.972;7.072;2022-07-01T04:56:17;101174.00;;;16.44;90.93
8140;BME280;4111;50.972;7.072;2022-07-01T04:58:44;101168.53;;;16.49;90.29
8140;BME280;4111;50.972;7.072;2022-07-01T05:01:10;101166.06;;;16.48;90.17
8140;BME280;4111;50.972;7.072;2022-07-01T05:03:37;101151.25;;;16.49;89.23
8140;BME280;4111;50.972;7.072;2022-07-01T05:06:05;101155.63;;;16.44;89.30
8140;BME280;4111;50.972;7.072;2022-07-01T05:08:32;101145.22;;;16.46;88.45
8140;BME280;4111;50.972;7.072;2022-07-01T05:10:58;101141.41;;;16.48;88.39
8140;BME280;4111;50.972;7.072;2022-07-01T05:13:24;101139.19;;;16.55;89.00
8140;BME280;4111;50.972;7.072;2022-07-01T05:15:51;101145.78;;;16.59;89.57
8140;BME280;4111;50.972;7.072;2022-07-01T05:18:17;101138.09;;;16.61;89.03
8140;BME280;4111;50.972;7.072;2022-07-01T05:21:02;101138.91;;;16.61;87.65
8140;BME280;4111;50.972;7.072;2022-07-01T05:23:58;101140.28;;;16.59;87.27
8140;BME280;4111;50.972;7.072;2022-07-01T05:26:25;101140.81;;;16.56;87.40
8140;BME280;4111;50.972;7.072;2022-07-01T05:28:55;101154.00;;;16.54;86.99
8140;BME280;4111;50.972;7.072;2022-07-01T05:31:21;101166.59;;;16.60;87.37
8140;BME280;4111;50.972;7.072;2022-07-01T05:33:48;101174.53;;;16.56;87.03
8140;BME280;4111;50.972;7.072;2022-07-01T05:36:15;101176.47;;;16.56;86.40
8140;BME280;4111;50.972;7.072;2022-07-01T05:38:41;101178.66;;;16.59;86.91
8140;BME280;4111;50.972;7.072;2022-07-01T05:41:08;101172.34;;;16.58;86.68
8140;BME280;4111;50.972;7.072;2022-07-01T05:43:35;101178.38;;;16.65;87.65
8140;BME280;4111;50.972;7.072;2022-07-01T05:46:01;101187.44;;;16.61;87.08
8140;BME280;4111;50.972;7.072;2022-07-01T05:48:28;101195.94;;;16.54;85.52
8140;BME280;4111;50.972;7.072;2022-07-01T05:50:54;101203.63;;;16.47;85.35
8140;BME280;4111;50.972;7.072;2022-07-01T05:53:21;101202.78;;;16.46;85.36
8140;BME280;4111;50.972;7.072;2022-07-01T05:55:48;101208.28;;;16.57;86.25
8140;BME280;4111;50.972;7.072;2022-07-01T05:58:14;101208.00;;;16.63;86.61
8140;BME280;4111;50.972;7.072;2022-07-01T06:00:42;101204.97;;;16.65;86.35
8140;BME280;4111;50.972;7.072;2022-07-01T06:03:09;101204.41;;;16.58;85.44
8140;BME280;4111;50.972;7.072;2022-07-01T06:05:36;101200.84;;;16.62;85.45
8140;BME280;4111;50.972;7.072;2022-07-01T06:08:04;101192.06;;;16.60;84.80
8140;BME280;4111;50.972;7.072;2022-07-01T06:10:30;101191.81;;;16.67;85.05
8140;BME280;4111;50.972;7.072;2022-07-01T06:12:57;101193.19;;;16.75;85.94
8140;BME280;4111;50.972;7.072;2022-07-01T06:15:24;101200.03;;;16.88;85.98
8140;BME280;4111;50.972;7.072;2022-07-01T06:17:51;101213.19;;;16.91;85.55
8140;BME280;4111;50.972;7.072;2022-07-01T06:20:18;101219.75;;;16.95;84.62
8140;BME280;4111;50.972;7.072;2022-07-01T06:22:44;101218.09;;;16.94;85.50
8140;BME280;4111;50.972;7.072;2022-07-01T06:25:11;101222.78;;;16.93;86.17
8140;BME280;4111;50.972;7.072;2022-07-01T06:27:44;101237.84;;;17.01;85.46
8140;BME280;4111;50.972;7.072;2022-07-01T06:30:12;101241.97;;;16.98;84.47
8140;BME280;4111;50.972;7.072;2022-07-01T06:32:39;101247.16;;;17.05;84.66
8140;BME280;4111;50.972;7.072;2022-07-01T06:35:06;101242.25;;;16.92;83.22
8140;BME280;4111;50.972;7.072;2022-07-01T06:37:34;101242.78;;;16.99;83.59
8140;BME280;4111;50.972;7.072;2022-07-01T06:40:05;101238.66;;;17.07;83.59
8140;BME280;4111;50.972;7.072;2022-07-01T06:42:33;101252.94;;;17.09;84.11
8140;BME280;4111;50.972;7.072;2022-07-01T06:45:00;101260.31;;;17.13;83.59
8140;BME280;4111;50.972;7.072;2022-07-01T06:47:27;101255.91;;;17.17;83.23
8140;BME280;4111;50.972;7.072;2022-07-01T06:49:53;101244.41;;;17.20;83.28
8140;BME280;4111;50.972;7.072;2022-07-01T06:52:21;101248.72;;;17.32;83.07
8140;BME280;4111;50.972;7.072;2022-07-01T06:54:48;101264.06;;;17.43;82.28
8140;BME280;4111;50.972;7.072;2022-07-01T06:57:14;101260.16;;;17.59;81.66
8140;BME280;4111;50.972;7.072;2022-07-01T06:59:41;101253.59;;;17.55;81.79
8140;BME280;4111;50.972;7.072;2022-07-01T07:02:07;101249.75;;;17.61;82.22
8140;BME280;4111;50.972;7.072;2022-07-01T07:04:34;101250.50;;;17.72;82.20
8140;BME280;4111;50.972;7.072;2022-07-01T07:07:21;101255.19;;;17.72;81.66
8140;BME280;4111;50.972;7.072;2022-07-01T07:09:47;101247.22;;;17.70;81.42
8140;BME280;4111;50.972;7.072;2022-07-01T07:12:14;101237.03;;;17.71;81.79
8140;BME280;4111;50.972;7.072;2022-07-01T07:14:40;101245.06;;;17.62;81.92
8140;BME280;4111;50.972;7.072;2022-07-01T07:17:07;101245.06;;;17.62;83.53
8140;BME280;4111;50.972;7.072;2022-07-01T07:19:34;101257.19;;;17.56;82.68
8140;BME280;4111;50.972;7.072;2022-07-01T07:22:00;101269.84;;;17.47;82.56
8140;BME280;4111;50.972;7.072;2022-07-01T07:24:26;101275.06;;;17.43;81.87
8140;BME280;4111;50.972;7.072;2022-07-01T07:26:53;101282.75;;;17.41;82.23
8140;BME280;4111;50.972;7.072;2022-07-01T07:29:19;101269.06;;;17.36;81.60
8140;BME280;4111;50.972;7.072;2022-07-01T07:31:46;101271.81;;;17.25;81.25
8140;BME280;4111;50.972;7.072;2022-07-01T07:34:12;101285.81;;;17.29;81.52
8140;BME280;4111;50.972;7.072;2022-07-01T07:36:39;101285.00;;;17.34;81.88
8140;BME280;4111;50.972;7.072;2022-07-01T07:39:05;101281.13;;;17.40;82.05
8140;BME280;4111;50.972;7.072;2022-07-01T07:41:32;101284.41;;;17.42;81.82
8140;BME280;4111;50.972;7.072;2022-07-01T07:43:58;101285.50;;;17.46;82.09
8140;BME280;4111;50.972;7.072;2022-07-01T07:46:25;101286.00;;;17.53;82.33
8140;BME280;4111;50.972;7.072;2022-07-01T07:48:51;101286.53;;;17.55;82.89
8140;BME280;4111;50.972;7.072;2022-07-01T07:51:18;101293.69;;;17.56;82.01
8140;BME280;4111;50.972;7.072;2022-07-01T07:53:51;101291.75;;;17.62;82.34
8140;BME280;4111;50.972;7.072;2022-07-01T07:56:17;101290.34;;;17.70;82.36
8140;BME280;4111;50.972;7.072;2022-07-01T07:58:44;101296.66;;;17.70;82.01
8140;BME280;4111;50.972;7.072;2022-07-01T08:01:10;101300.16;;;17.81;81.16
8140;BME280;4111;50.972;7.072;2022-07-01T08:03:37;101307.59;;;17.80;79.93
8140;BME280;4111;50.972;7.072;2022-07-01T08:06:04;101298.03;;;17.68;79.34
8140;BME280;4111;50.972;7.072;2022-07-01T08:08:31;101300.75;;;17.73;79.97
8140;BME280;4111;50.972;7.072;2022-07-01T08:10:57;101299.13;;;17.72;79.51
8140;BME280;4111;50.972;7.072;2022-07-01T08:13:24;101295.25;;;17.73;79.48
8140;BME280;4111;50.972;7.072;2022-07-01T08:15:50;101287.81;;;17.78;79.23
8140;BME280;4111;50.972;7.072;2022-07-01T08:18:17;101294.63;;;18.01;81.21
8140;BME280;4111;50.972;7.072;2022-07-01T08:20:43;101298.97;;;18.13;80.20
8140;BME280;4111;50.972;7.072;2022-07-01T08:23:10;101301.59;;;18.28;79.37
8140;BME280;4111;50.972;7.072;2022-07-01T08:25:37;101306.38;;;18.52;78.59
8140;BME280;4111;50.972;7.072;2022-07-01T08:28:03;101311.25;;;18.65;78.05
8140;BME280;4111;50.972;7.072;2022-07-01T08:30:30;101307.03;;;18.38;76.48
8140;BME280;4111;50.972;7.072;2022-07-01T08:32:57;101313.34;;;18.39;76.88
8140;BME280;4111;50.972;7.072;2022-07-01T08:35:23;101315.84;;;18.35;76.33
8140;BME280;4111;50.972;7.072;2022-07-01T08:37:50;101319.41;;;18.41;76.92
8140;BME280;4111;50.972;7.072;2022-07-01T08:40:16;101334.47;;;18.49;77.28
8140;BME280;4111;50.972;7.072;2022-07-01T08:42:43;101328.13;;;18.48;76.06
8140;BME280;4111;50.972;7.072;2022-07-01T08:45:09;101326.47;;;18.52;75.63
8140;BME280;4111;50.972;7.072;2022-07-01T08:47:49;101334.94;;;18.56;76.52
8140;BME280;4111;50.972;7.072;2022-07-01T08:50:16;101326.66;;;18.66;76.54
8140;BME280;4111;50.972;7.072;2022-07-01T08:52:48;101319.47;;;18.70;76.49
8140;BME280;4111;50.972;7.072;2022-07-01T08:55:15;101322.78;;;18.67;75.85
8140;BME280;4111;50.972;7.072;2022-07-01T08:57:41;101313.47;;;18.63;75.85
8140;BME280;4111;50.972;7.072;2022-07-01T09:00:09;101310.09;;;18.71;75.61
8140;BME280;4111;50.972;7.072;2022-07-01T09:05:19;101315.13;;;18.59;74.85
8140;BME280;4111;50.972;7.072;2022-07-01T09:07:47;101317.34;;;18.57;74.93
8140;BME280;4111;50.972;7.072;2022-07-01T09:10:18;101319.22;;;18.67;74.66
8140;BME280;4111;50.972;7.072;2022-07-01T09:12:46;101316.22;;;18.63;74.62
8140;BME280;4111;50.972;7.072;2022-07-01T09:15:23;101316.38;;;18.82;75.08
8140;BME280;4111;50.972;7.072;2022-07-01T09:17:54;101323.09;;;19.00;74.68
8140;BME280;4111;50.972;7.072;2022-07-01T09:20:30;101327.97;;;19.08;73.85
8140;BME280;4111;50.972;7.072;2022-07-01T09:23:14;101329.78;;;18.89;72.31
8140;BME280;4111;50.972;7.072;2022-07-01T09:25:49;101328.75;;;18.79;72.31
8140;BME280;4111;50.972;7.072;2022-07-01T09:28:24;101341.13;;;18.82;72.47
8140;BME280;4111;50.972;7.072;2022-07-01T09:30:55;101338.56;;;18.91;72.03
8140;BME280;4111;50.972;7.072;2022-07-01T09:33:28;101325.06;;;18.94;70.59
8140;BME280;4111;50.972;7.072;2022-07-01T09:35:56;101326.91;;;19.04;70.63
8140;BME280;4111;50.972;7.072;2022-07-01T09:38:25;101332.31;;;19.14;70.63
8140;BME280;4111;50.972;7.072;2022-07-01T09:41:00;101336.91;;;19.24;70.51
8140;BME280;4111;50.972;7.072;2022-07-01T09:43:32;101335.19;;;19.28;70.65
8140;BME280;4111;50.972;7.072;2022-07-01T09:46:08;101334.38;;;19.28;70.14
8140;BME280;4111;50.972;7.072;2022-07-01T09:51:04;101340.84;;;19.42;68.72
8140;BME280;4111;50.972;7.072;2022-07-01T09:53:37;101335.50;;;19.51;68.71
8140;BME280;4111;50.972;7.072;2022-07-01T09:56:04;101353.97;;;19.50;68.76
8140;BME280;4111;50.972;7.072;2022-07-01T09:58:31;101347.47;;;19.65;67.81
8140;BME280;4111;50.972;7.072;2022-07-01T10:00:58;101345.22;;;19.96;66.91
8140;BME280;4111;50.972;7.072;2022-07-01T10:03:26;101340.84;;;19.90;65.83
8140;BME280;4111;50.972;7.072;2022-07-01T10:05:56;101341.78;;;20.05;65.06
8140;BME280;4111;50.972;7.072;2022-07-01T10:08:42;101342.75;;;20.14;65.67
8140;BME280;4111;50.972;7.072;2022-07-01T10:11:39;101344.78;;;20.27;64.18
8140;BME280;4111;50.972;7.072;2022-07-01T10:14:11;101339.56;;;20.45;63.93
8140;BME280;4111;50.972;7.072;2022-07-01T10:16:39;101344.78;;;20.27;64.16
8140;BME280;4111;50.972;7.072;2022-07-01T10:19:30;101342.84;;;20.47;63.00
8140;BME280;4111;50.972;7.072;2022-07-01T10:22:29;101335.84;;;20.73;63.65
8140;BME280;4111;50.972;7.072;2022-07-01T10:24:56;101338.53;;;20.78;62.28
8140;BME280;4111;50.972;7.072;2022-07-01T10:27:42;101337.00;;;21.05;61.52
8140;BME280;4111;50.972;7.072;2022-07-01T10:30:14;101336.19;;;21.18;60.21
8140;BME280;4111;50.972;7.072;2022-07-01T10:32:48;101329.25;;;21.21;58.37
8140;BME280;4111;50.972;7.072;2022-07-01T10:35:36;101335.16;;;21.28;59.11
8140;BME280;4111;50.972;7.072;2022-07-01T10:38:03;101337.69;;;21.57;59.08
8140;BME280;4111;50.972;7.072;2022-07-01T10:40:43;101345.69;;;21.73;58.00
8140;BME280;4111;50.972;7.072;2022-07-01T10:43:34;101344.88;;;21.58;56.18
8140;BME280;4111;50.972;7.072;2022-07-01T10:46:01;101343.22;;;21.85;56.50
8140;BME280;4111;50.972;7.072;2022-07-01T10:48:31;101340.97;;;21.87;55.55
8140;BME280;4111;50.972;7.072;2022-07-01T10:50:57;101340.75;;;21.97;55.65
8140;BME280;4111;50.972;7.072;2022-07-01T10:53:24;101338.69;;;22.03;55.06
8140;BME280;4111;50.972;7.072;2022-07-01T10:55:52;101328.28;;;21.86;55.01
8140;BME280;4111;50.972;7.072;2022-07-01T10:58:37;101330.09;;;21.91;55.25
8140;BME280;4111;50.972;7.072;2022-07-01T11:01:04;101322.09;;;22.03;55.99
8140;BME280;4111;50.972;7.072;2022-07-01T11:03:37;101323.94;;;22.08;55.72
8140;BME280;4111;50.972;7.072;2022-07-01T11:06:06;101322.69;;;22.14;56.17
8140;BME280;4111;50.972;7.072;2022-07-01T11:08:33;101321.06;;;22.13;55.62
8140;BME280;4111;50.972;7.072;2022-07-01T11:11:01;101317.16;;;22.14;55.58
8140;BME280;4111;50.972;7.072;2022-07-01T11:13:30;101324.81;;;22.17;55.55
8140;BME280;4111;50.972;7.072;2022-07-01T11:15:57;101327.22;;;22.10;56.04
8140;BME280;4111;50.972;7.072;2022-07-01T11:18:24;101318.72;;;22.06;56.88
8140;BME280;4111;50.972;7.072;2022-07-01T11:20:51;101318.00;;;22.01;57.33
8140;BME280;4111;50.972;7.072;2022-07-01T11:23:20;101313.69;;;22.08;57.92
8140;BME280;4111;50.972;7.072;2022-07-01T11:25:48;101328.44;;;22.04;56.92
8140;BME280;4111;50.972;7.072;2022-07-01T11:28:15;101328.44;;;21.90;55.84
8140;BME280;4111;50.972;7.072;2022-07-01T11:30:41;101323.56;;;21.73;55.67
8140;BME280;4111;50.972;7.072;2022-07-01T11:33:08;101319.88;;;21.64;55.60
8140;BME280;4111;50.972;7.072;2022-07-01T11:35:35;101317.22;;;21.72;56.00
8140;BME280;4111;50.972;7.072;2022-07-01T11:38:23;101316.38;;;21.86;57.39
8140;BME280;4111;50.972;7.072;2022-07-01T11:41:20;101320.69;;;21.78;57.23
8140;BME280;4111;50.972;7.072;2022-07-01T11:43:47;101323.56;;;21.73;58.08
8140;BME280;4111;50.972;7.072;2022-07-01T11:46:14;101332.97;;;21.58;57.47
8140;BME280;4111;50.972;7.072;2022-07-01T11:48:43;101326.84;;;21.47;58.66
8140;BME280;4111;50.972;7.072;2022-07-01T11:53:41;101329.66;;;21.42;59.09
8140;BME280;4111;50.972;7.072;2022-07-01T11:56:08;101332.22;;;21.38;58.14
8140;BME280;4111;50.972;7.072;2022-07-01T12:01:08;101324.13;;;21.42;57.47
8140;BME280;4111;50.972;7.072;2022-07-01T12:03:35;101318.72;;;21.37;57.24
8140;BME280;4111;50.972;7.072;2022-07-01T12:06:04;101322.78;;;21.26;56.53
8140;BME280;4111;50.972;7.072;2022-07-01T12:08:31;101323.81;;;21.16;57.14
8140;BME280;4111;50.972;7.072;2022-07-01T12:10:58;101332.50;;;21.09;58.01
8140;BME280;4111;50.972;7.072;2022-07-01T12:13:27;101325.31;;;21.08;58.43
8140;BME280;4111;50.972;7.072;2022-07-01T12:15:53;101330.66;;;21.18;59.38
8140;BME280;4111;50.972;7.072;2022-07-01T12:18:20;101326.88;;;21.28;59.04
8140;BME280;4111;50.972;7.072;2022-07-01T12:20:53;101327.00;;;21.37;57.93
8140;BME280;4111;50.972;7.072;2022-07-01T12:23:20;101330.72;;;21.46;57.42
8140;BME280;4111;50.972;7.072;2022-07-01T12:25:50;101326.72;;;21.52;56.06
8140;BME280;4111;50.972;7.072;2022-07-01T12:31:09;101332.16;;;21.57;53.46
8140;BME280;4111;50.972;7.072;2022-07-01T12:33:38;101325.81;;;21.71;54.15
8140;BME280;4111;50.972;7.072;2022-07-01T12:36:06;101318.25;;;21.63;53.17
8140;BME280;4111;50.972;7.072;2022-07-01T12:38:34;101318.03;;;21.73;53.34
8140;BME280;4111;50.972;7.072;2022-07-01T12:41:01;101312.81;;;21.85;52.34
8140;BME280;4111;50.972;7.072;2022-07-01T12:43:31;101316.50;;;21.94;52.15
8140;BME280;4111;50.972;7.072;2022-07-01T12:46:03;101312.56;;;21.95;51.36
8140;BME280;4111;50.972;7.072;2022-07-01T12:48:47;101317.38;;;22.04;50.22
8140;BME280;4111;50.972;7.072;2022-07-01T12:51:14;101315.66;;;22.08;50.93
8140;BME280;4111;50.972;7.072;2022-07-01T12:53:42;101316.03;;;22.15;50.46
8140;BME280;4111;50.972;7.072;2022-07-01T12:56:22;101323.72;;;22.18;51.03
8140;BME280;4111;50.972;7.072;2022-07-01T12:58:49;101315.13;;;22.20;50.66
8140;BME280;4111;50.972;7.072;2022-07-01T13:01:18;101298.41;;;22.25;51.14
8140;BME280;4111;50.972;7.072;2022-07-01T13:03:46;101303.69;;;22.35;50.67
8140;BME280;4111;50.972;7.072;2022-07-01T13:06:13;101310.19;;;22.30;49.98
8140;BME280;4111;50.972;7.072;2022-07-01T13:08:40;101303.84;;;22.30;50.96
8140;BME280;4111;50.972;7.072;2022-07-01T13:11:06;101301.44;;;22.37;50.63
8140;BME280;4111;50.972;7.072;2022-07-01T13:13:33;101309.19;;;22.49;50.80
8140;BME280;4111;50.972;7.072;2022-07-01T13:15:59;101314.22;;;22.47;50.88
8140;BME280;4111;50.972;7.072;2022-07-01T13:18:26;101312.69;;;22.41;51.70
8140;BME280;4111;50.972;7.072;2022-07-01T13:20:52;101315.59;;;22.35;52.03
8140;BME280;4111;50.972;7.072;2022-07-01T13:23:18;101326.53;;;22.41;51.25
8140;BME280;4111;50.972;7.072;2022-07-01T13:25:45;101324.88;;;22.53;52.10
8140;BME280;4111;50.972;7.072;2022-07-01T13:28:11;101321.91;;;22.50;51.13
8140;BME280;4111;50.972;7.072;2022-07-01T13:30:38;101326.13;;;22.47;51.78